sensor_id;sensor_type;location;lat;lon;timestamp;pressure;altitude;pressure_sealevel;temperature;humidity
12594;BME280;6362;50.208;9.182;2023-03-13T00:00:54;99186.41;;;9.06;69.07
12594;BME280;6362;50.208;9.182;2023-03-13T00:03:20;99181.22;;;9.06;68.90
12594;BME280;6362;50.208;9.182;2023-03-13T00:05:46;99174.22;;;9.10;68.52
12594;BME280;6362;50.208;9.182;2023-03-13T00:08:11;99177.78;;;9.03;68.76
12594;BME280;6362;50.208;9.182;2023-03-13T00:10:38;99177.69;;;9.09;68.82
12594;BME280;6362;50.208;9.182;2023-03-13T00:13:05;99183.81;;;9.03;69.08
12594;BME280;6362;50.208;9.182;2023-03-13T00:15:31;99175.34;;;8.92;69.62
12594;BME280;6362;50.208;9.182;2023-03-13T00:17:56;99166.53;;;9.05;69.00
12594;BME280;6362;50.208;9.182;2023-03-13T00:20:22;99157.00;;;9.06;69.31
12594;BME280;6362;50.208;9.182;2023-03-13T00:22:47;99156.28;;;8.96;69.42
12594;BME280;6362;50.208;9.182;2023-03-13T00:25:12;99156.28;;;8.93;69.44
12594;BME280;6362;50.208;9.182;2023-03-13T00:27:38;99149.38;;;8.93;69.65
12594;BME280;6362;50.208;9.182;2023-03-13T00:30:04;99144.81;;;9.12;68.71
12594;BME280;6362;50.208;9.182;2023-03-13T00:32:29;99144.94;;;9.02;69.18
12594;BME280;6362;50.208;9.182;2023-03-13T00:34:55;99138.88;;;9.03;69.30
12594;BME280;6362;50.208;9.182;2023-03-13T00:37:20;99133.41;;;9.22;69.07
12594;BME280;6362;50.208;9.182;2023-03-13T00:39:46;99135.00;;;9.31;68.15
12594;BME280;6362;50.208;9.182;2023-03-13T00:42:11;99134.03;;;9.37;68.12
12594;BME280;6362;50.208;9.182;2023-03-13T00:44:37;99126.16;;;9.44;67.52
12594;BME280;6362;50.208;9.182;2023-03-13T00:47:02;99121.78;;;9.46;67.39
12594;BME280;6362;50.208;9.182;2023-03-13T00:49:30;99126.00;;;9.53;67.49
12594;BME280;6362;50.208;9.182;2023-03-13T00:51:55;99118.88;;;9.65;66.82
12594;BME280;6362;50.208;9.182;2023-03-13T00:54:21;99112.81;;;9.67;66.95
12594;BME280;6362;50.208;9.182;2023-03-13T00:56:46;99113.47;;;9.78;66.44
12594;BME280;6362;50.208;9.182;2023-03-13T00:59:13;99108.97;;;9.87;65.78
12594;BME280;6362;50.208;9.182;2023-03-13T01:01:38;99106.31;;;9.91;65.81
12594;BME280;6362;50.208;9.182;2023-03-13T01:04:06;99107.09;;;9.96;65.54
12594;BME280;6362;50.208;9.182;2023-03-13T01:06:35;99098.31;;;10.02;65.39
12594;BME280;6362;50.208;9.182;2023-03-13T01:09:02;99100.97;;;10.00;65.60
12594;BME280;6362;50.208;9.182;2023-03-13T01:11:30;99095.69;;;10.05;65.07
12594;BME280;6362;50.208;9.182;2023-03-13T01:14:03;99083.50;;;10.07;64.91
12594;BME280;6362;50.208;9.182;2023-03-13T01:16:30;99084.44;;;10.03;65.30
12594;BME280;6362;50.208;9.182;2023-03-13T01:18:59;99082.81;;;9.97;65.80
12594;BME280;6362;50.208;9.182;2023-03-13T01:21:26;99072.34;;;10.02;65.43
12594;BME280;6362;50.208;9.182;2023-03-13T01:23:53;99061.91;;;10.03;65.50
12594;BME280;6362;50.208;9.182;2023-03-13T01:26:19;99054.19;;;10.00;65.87
12594;BME280;6362;50.208;9.182;2023-03-13T01:28:45;99055.94;;;9.98;65.56
12594;BME280;6362;50.208;9.182;2023-03-13T01:31:22;99049.91;;;9.98;65.63
12594;BME280;6362;50.208;9.182;2023-03-13T01:33:51;99048.97;;;10.02;65.36
12594;BME280;6362;50.208;9.182;2023-03-13T01:36:18;99043.81;;;9.99;65.47
12594;BME280;6362;50.208;9.182;2023-03-13T01:38:47;99040.34;;;10.00;65.60
12594;BME280;6362;50.208;9.182;2023-03-13T01:41:13;99039.59;;;9.93;65.91
12594;BME280;6362;50.208;9.182;2023-03-13T01:43:47;99030.81;;;9.99;65.61
12594;BME280;6362;50.208;9.182;2023-03-13T01:51:43;99012.63;;;10.00;65.44
12594;BME280;6362;50.208;9.182;2023-03-13T01:56:58;99003.91;;;10.03;65.69
12594;BME280;6362;50.208;9.182;2023-03-13T01:59:30;99000.47;;;10.02;65.72
12594;BME280;6362;50.208;9.182;2023-03-13T02:01:59;99006.69;;;9.95;66.27
12594;BME280;6362;50.208;9.182;2023-03-13T02:04:29;99003.91;;;10.03;65.83
12594;BME280;6362;50.208;9.182;2023-03-13T02:06:57;98989.81;;;10.15;65.50
12594;BME280;6362;50.208;9.182;2023-03-13T02:09:28;98992.28;;;10.22;65.42
12594;BME280;6362;50.208;9.182;2023-03-13T02:12:14;98980.13;;;10.21;65.36
12594;BME280;6362;50.208;9.182;2023-03-13T02:14:44;98976.72;;;10.19;65.80
12594;BME280;6362;50.208;9.182;2023-03-13T02:17:11;98968.91;;;10.21;65.60
12594;BME280;6362;50.208;9.182;2023-03-13T02:19:48;98961.31;;;10.10;66.35
12594;BME280;6362;50.208;9.182;2023-03-13T02:27:18;98949.94;;;10.16;65.90
12594;BME280;6362;50.208;9.182;2023-03-13T02:29:44;98950.94;;;10.12;66.14
12594;BME280;6362;50.208;9.182;2023-03-13T02:32:10;98952.53;;;10.16;65.90
12594;BME280;6362;50.208;9.182;2023-03-13T02:34:38;98946.53;;;10.14;66.13
12594;BME280;6362;50.208;9.182;2023-03-13T02:37:06;98944.63;;;10.23;66.22
12594;BME280;6362;50.208;9.182;2023-03-13T02:39:38;98947.25;;;10.20;66.90
12594;BME280;6362;50.208;9.182;2023-03-13T02:42:06;98951.53;;;10.24;67.56
12594;BME280;6362;50.208;9.182;2023-03-13T02:44:39;98942.84;;;10.25;67.98
12594;BME280;6362;50.208;9.182;2023-03-13T02:47:05;98934.31;;;10.19;68.60
12594;BME280;6362;50.208;9.182;2023-03-13T02:49:31;98919.56;;;10.19;68.89
12594;BME280;6362;50.208;9.182;2023-03-13T02:51:59;98917.91;;;10.17;69.35
12594;BME280;6362;50.208;9.182;2023-03-13T02:54:33;98917.25;;;10.07;70.37
12594;BME280;6362;50.208;9.182;2023-03-13T02:57:02;98913.00;;;10.03;71.28
12594;BME280;6362;50.208;9.182;2023-03-13T02:59:28;98906.56;;;9.81;72.82
12594;BME280;6362;50.208;9.182;2023-03-13T03:01:53;98907.66;;;9.69;73.46
12594;BME280;6362;50.208;9.182;2023-03-13T03:04:20;98905.28;;;9.58;74.15
12594;BME280;6362;50.208;9.182;2023-03-13T03:06:47;98897.66;;;9.49;75.01
12594;BME280;6362;50.208;9.182;2023-03-13T03:09:13;98900.38;;;9.43;75.28
12594;BME280;6362;50.208;9.182;2023-03-13T03:11:38;98902.28;;;9.35;76.35
12594;BME280;6362;50.208;9.182;2023-03-13T03:14:04;98894.63;;;9.29;76.66
12594;BME280;6362;50.208;9.182;2023-03-13T03:16:30;98891.94;;;9.32;76.63
12594;BME280;6362;50.208;9.182;2023-03-13T03:18:55;98875.53;;;9.31;76.68
12594;BME280;6362;50.208;9.182;2023-03-13T03:21:21;98873.88;;;9.27;76.19
12594;BME280;6362;50.208;9.182;2023-03-13T03:23:48;98873.88;;;9.27;77.16
12594;BME280;6362;50.208;9.182;2023-03-13T03:26:14;98873.25;;;9.14;77.54
12594;BME280;6362;50.208;9.182;2023-03-13T03:28:40;98873.38;;;9.08;78.19
12594;BME280;6362;50.208;9.182;2023-03-13T03:31:06;98867.56;;;8.95;78.27
12594;BME280;6362;50.208;9.182;2023-03-13T03:33:32;98862.44;;;8.94;78.74
12594;BME280;6362;50.208;9.182;2023-03-13T03:36:00;98859.75;;;8.97;78.87
12594;BME280;6362;50.208;9.182;2023-03-13T03:38:26;98865.06;;;8.91;79.28
12594;BME280;6362;50.208;9.182;2023-03-13T03:40:51;98850.16;;;9.02;78.64
12594;BME280;6362;50.208;9.182;2023-03-13T03:43:17;98846.78;;;8.97;78.68
12594;BME280;6362;50.208;9.182;2023-03-13T03:45:42;98852.16;;;8.86;79.72
12594;BME280;6362;50.208;9.182;2023-03-13T03:48:07;98837.44;;;8.90;79.31
12594;BME280;6362;50.208;9.182;2023-03-13T03:50:33;98841.72;;;8.91;79.74
12594;BME280;6362;50.208;9.182;2023-03-13T03:52:58;98835.72;;;8.89;79.60
12594;BME280;6362;50.208;9.182;2023-03-13T03:55:24;98845.97;;;8.95;80.06
12594;BME280;6362;50.208;9.182;2023-03-13T03:57:49;98849.53;;;8.88;80.31
12594;BME280;6362;50.208;9.182;2023-03-13T04:00:15;98847.56;;;9.02;79.31
12594;BME280;6362;50.208;9.182;2023-03-13T04:02:41;98846.63;;;9.06;79.26
12594;BME280;6362;50.208;9.182;2023-03-13T04:05:07;98843.97;;;9.09;79.62
12594;BME280;6362;50.208;9.182;2023-03-13T04:07:33;98838.97;;;9.00;79.60
12594;BME280;6362;50.208;9.182;2023-03-13T04:09:58;98835.53;;;8.99;80.99
12594;BME280;6362;50.208;9.182;2023-03-13T04:12:24;98833.72;;;9.03;80.78
12594;BME280;6362;50.208;9.182;2023-03-13T04:14:49;98832.72;;;9.09;80.67
12594;BME280;6362;50.208;9.182;2023-03-13T04:17:14;98830.91;;;9.14;80.55
12594;BME280;6362;50.208;9.182;2023-03-13T04:19:40;98832.69;;;9.12;81.37
12594;BME280;6362;50.208;9.182;2023-03-13T04:22:06;98824.97;;;9.09;80.94
12594;BME280;6362;50.208;9.182;2023-03-13T04:24:31;98831.84;;;9.11;81.30
12594;BME280;6362;50.208;9.182;2023-03-13T04:26:57;98831.00;;;9.09;81.69
12594;BME280;6362;50.208;9.182;2023-03-13T04:29:23;98818.22;;;9.00;81.96
12594;BME280;6362;50.208;9.182;2023-03-13T04:31:48;98837.16;;;9.04;82.14
12594;BME280;6362;50.208;9.182;2023-03-13T04:34:14;98826.69;;;9.08;82.07
12594;BME280;6362;50.208;9.182;2023-03-13T04:36:39;98814.69;;;9.03;82.19
12594;BME280;6362;50.208;9.182;2023-03-13T04:39:05;98815.50;;;9.05;82.21
12594;BME280;6362;50.208;9.182;2023-03-13T04:41:30;98811.94;;;9.12;81.90
12594;BME280;6362;50.208;9.182;2023-03-13T04:43:56;98803.28;;;9.13;82.27
12594;BME280;6362;50.208;9.182;2023-03-13T04:46:21;98798.13;;;9.10;82.51
12594;BME280;6362;50.208;9.182;2023-03-13T04:48:47;98793.69;;;9.16;82.13
12594;BME280;6362;50.208;9.182;2023-03-13T04:51:12;98798.00;;;9.16;82.26
12594;BME280;6362;50.208;9.182;2023-03-13T04:53:38;98792.81;;;9.17;82.17
12594;BME280;6362;50.208;9.182;2023-03-13T04:56:04;98805.88;;;9.13;82.85
12594;BME280;6362;50.208;9.182;2023-03-13T04:58:30;98799.78;;;9.14;82.92
12594;BME280;6362;50.208;9.182;2023-03-13T05:00:55;98791.13;;;9.15;83.02
12594;BME280;6362;50.208;9.182;2023-03-13T05:03:22;98769.34;;;9.23;83.02
12594;BME280;6362;50.208;9.182;2023-03-13T05:05:47;98762.44;;;9.22;82.48
12594;BME280;6362;50.208;9.182;2023-03-13T05:08:13;98771.03;;;9.24;83.09
12594;BME280;6362;50.208;9.182;2023-03-13T05:10:41;98774.53;;;9.23;82.80
12594;BME280;6362;50.208;9.182;2023-03-13T05:13:06;98766.59;;;9.30;83.12
12594;BME280;6362;50.208;9.182;2023-03-13T05:15:32;98764.06;;;9.26;83.17
12594;BME280;6362;50.208;9.182;2023-03-13T05:17:57;98768.38;;;9.28;83.26
12594;BME280;6362;50.208;9.182;2023-03-13T05:20:23;98762.34;;;9.25;83.32
12594;BME280;6362;50.208;9.182;2023-03-13T05:22:48;98768.41;;;9.26;83.72
12594;BME280;6362;50.208;9.182;2023-03-13T05:25:14;98765.72;;;9.31;83.53
12594;BME280;6362;50.208;9.182;2023-03-13T05:27:39;98763.06;;;9.32;83.69
12594;BME280;6362;50.208;9.182;2023-03-13T05:30:05;98740.59;;;9.33;83.70
12594;BME280;6362;50.208;9.182;2023-03-13T05:32:31;98742.41;;;9.29;84.18
12594;BME280;6362;50.208;9.182;2023-03-13T05:34:56;98735.34;;;9.36;83.67
12594;BME280;6362;50.208;9.182;2023-03-13T05:37:22;98732.59;;;9.42;83.88
12594;BME280;6362;50.208;9.182;2023-03-13T05:39:48;98731.72;;;9.43;83.86
12594;BME280;6362;50.208;9.182;2023-03-13T05:42:13;98719.56;;;9.45;83.80
12594;BME280;6362;50.208;9.182;2023-03-13T05:44:38;98730.00;;;9.42;84.27
12594;BME280;6362;50.208;9.182;2023-03-13T05:47:04;98725.44;;;9.53;83.81
12594;BME280;6362;50.208;9.182;2023-03-13T05:49:30;98738.31;;;9.58;84.11
12594;BME280;6362;50.208;9.182;2023-03-13T05:51:55;98731.34;;;9.60;83.21
12594;BME280;6362;50.208;9.182;2023-03-13T05:54:20;98732.09;;;9.65;83.43
12594;BME280;6362;50.208;9.182;2023-03-13T05:56:46;98734.56;;;9.69;83.46
12594;BME280;6362;50.208;9.182;2023-03-13T05:59:14;98735.38;;;9.71;83.76
12594;BME280;6362;50.208;9.182;2023-03-13T06:01:40;98727.59;;;9.73;83.51
12594;BME280;6362;50.208;9.182;2023-03-13T06:04:05;98740.47;;;9.77;83.50
12594;BME280;6362;50.208;9.182;2023-03-13T06:06:31;98735.97;;;9.83;83.50
12594;BME280;6362;50.208;9.182;2023-03-13T06:08:56;98748.94;;;9.84;83.54
12594;BME280;6362;50.208;9.182;2023-03-13T06:11:21;98734.22;;;9.85;83.53
12594;BME280;6362;50.208;9.182;2023-03-13T06:13:47;98723.56;;;9.95;83.28
12594;BME280;6362;50.208;9.182;2023-03-13T06:16:12;98726.06;;;10.00;83.03
12594;BME280;6362;50.208;9.182;2023-03-13T06:18:38;98713.94;;;10.00;83.42
12594;BME280;6362;50.208;9.182;2023-03-13T06:21:03;98706.13;;;10.00;83.10
12594;BME280;6362;50.208;9.182;2023-03-13T06:23:29;98689.72;;;10.00;83.32
12594;BME280;6362;50.208;9.182;2023-03-13T06:25:55;98700.84;;;10.03;83.24
12594;BME280;6362;50.208;9.182;2023-03-13T06:28:20;98706.03;;;10.03;83.46
12594;BME280;6362;50.208;9.182;2023-03-13T06:30:46;98695.66;;;10.03;83.25
12594;BME280;6362;50.208;9.182;2023-03-13T06:33:11;98706.03;;;10.03;83.63
12594;BME280;6362;50.208;9.182;2023-03-13T06:35:41;98708.63;;;10.05;83.55
12594;BME280;6362;50.208;9.182;2023-03-13T06:38:08;98703.28;;;10.10;83.36
12594;BME280;6362;50.208;9.182;2023-03-13T06:40:33;98703.28;;;10.10;83.65
12594;BME280;6362;50.208;9.182;2023-03-13T06:42:59;98711.94;;;10.10;83.72
12594;BME280;6362;50.208;9.182;2023-03-13T06:45:24;98704.88;;;10.15;83.65
12594;BME280;6362;50.208;9.182;2023-03-13T06:47:50;98708.13;;;10.25;82.83
12594;BME280;6362;50.208;9.182;2023-03-13T06:50:17;98710.78;;;10.23;83.03
12594;BME280;6362;50.208;9.182;2023-03-13T06:52:42;98716.72;;;10.28;83.26
12594;BME280;6362;50.208;9.182;2023-03-13T06:55:08;98713.41;;;10.20;83.68
12594;BME280;6362;50.208;9.182;2023-03-13T06:57:34;98706.47;;;10.21;83.63
12594;BME280;6362;50.208;9.182;2023-03-13T06:59:59;98712.31;;;10.30;83.48
12594;BME280;6362;50.208;9.182;2023-03-13T07:02:24;98706.22;;;10.31;83.29
12594;BME280;6362;50.208;9.182;2023-03-13T07:04:50;98703.44;;;10.39;82.97
12594;BME280;6362;50.208;9.182;2023-03-13T07:07:15;98697.47;;;10.36;83.21
12594;BME280;6362;50.208;9.182;2023-03-13T07:09:41;98697.22;;;10.45;82.88
12594;BME280;6362;50.208;9.182;2023-03-13T07:12:06;98688.34;;;10.52;82.81
12594;BME280;6362;50.208;9.182;2023-03-13T07:14:33;98681.34;;;10.55;82.48
12594;BME280;6362;50.208;9.182;2023-03-13T07:16:58;98673.50;;;10.57;82.43
12594;BME280;6362;50.208;9.182;2023-03-13T07:19:24;98671.91;;;10.51;82.93
12594;BME280;6362;50.208;9.182;2023-03-13T07:21:51;98674.22;;;10.62;82.48
12594;BME280;6362;50.208;9.182;2023-03-13T07:24:17;98679.28;;;10.67;82.86
12594;BME280;6362;50.208;9.182;2023-03-13T07:26:43;98675.44;;;10.80;81.64
12594;BME280;6362;50.208;9.182;2023-03-13T07:29:09;98689.22;;;10.83;81.84
12594;BME280;6362;50.208;9.182;2023-03-13T07:31:35;98690.69;;;10.92;81.28
12594;BME280;6362;50.208;9.182;2023-03-13T07:34:00;98693.09;;;10.98;81.29
12594;BME280;6362;50.208;9.182;2023-03-13T07:36:26;98683.56;;;10.99;81.34
12594;BME280;6362;50.208;9.182;2023-03-13T07:38:51;98693.09;;;11.00;81.45
12594;BME280;6362;50.208;9.182;2023-03-13T07:41:18;98701.75;;;10.99;81.41
12594;BME280;6362;50.208;9.182;2023-03-13T07:43:44;98702.31;;;11.10;80.52
12594;BME280;6362;50.208;9.182;2023-03-13T07:46:12;98698.09;;;11.06;81.23
12594;BME280;6362;50.208;9.182;2023-03-13T07:48:41;98705.59;;;11.17;80.67
12594;BME280;6362;50.208;9.182;2023-03-13T07:51:21;98700.22;;;11.21;80.15
12594;BME280;6362;50.208;9.182;2023-03-13T07:53:47;98705.28;;;11.27;80.08
12594;BME280;6362;50.208;9.182;2023-03-13T07:56:18;98699.25;;;11.25;79.75
12594;BME280;6362;50.208;9.182;2023-03-13T07:58:45;98696.28;;;11.37;79.16
12594;BME280;6362;50.208;9.182;2023-03-13T08:01:32;98698.00;;;11.39;79.23
12594;BME280;6362;50.208;9.182;2023-03-13T08:03:57;98694.34;;;11.44;79.15
12594;BME280;6362;50.208;9.182;2023-03-13T08:06:26;98701.19;;;11.47;79.09
12594;BME280;6362;50.208;9.182;2023-03-13T08:08:55;98695.91;;;11.50;78.70
12594;BME280;6362;50.208;9.182;2023-03-13T08:11:23;98701.13;;;11.50;79.05
12594;BME280;6362;50.208;9.182;2023-03-13T08:13:50;98700.09;;;11.54;78.48
12594;BME280;6362;50.208;9.182;2023-03-13T08:16:18;98702.72;;;11.54;78.67
12594;BME280;6362;50.208;9.182;2023-03-13T08:18:46;98693.97;;;11.56;78.62
12594;BME280;6362;50.208;9.182;2023-03-13T08:21:14;98685.09;;;11.62;78.56
12594;BME280;6362;50.208;9.182;2023-03-13T08:23:40;98698.97;;;11.62;78.62
12594;BME280;6362;50.208;9.182;2023-03-13T08:26:13;98704.00;;;11.69;78.23
12594;BME280;6362;50.208;9.182;2023-03-13T08:28:40;98709.78;;;11.77;78.00
12594;BME280;6362;50.208;9.182;2023-03-13T08:31:17;98717.78;;;11.72;78.28
12594;BME280;6362;50.208;9.182;2023-03-13T08:33:44;98708.91;;;11.78;78.44
12594;BME280;6362;50.208;9.182;2023-03-13T08:38:38;98724.38;;;11.84;78.64
12594;BME280;6362;50.208;9.182;2023-03-13T08:41:07;98721.56;;;11.90;78.84
12594;BME280;6362;50.208;9.182;2023-03-13T08:43:32;98727.84;;;11.84;79.21
12594;BME280;6362;50.208;9.182;2023-03-13T08:45:58;98710.56;;;11.80;78.98
12594;BME280;6362;50.208;9.182;2023-03-13T08:48:23;98717.47;;;11.83;79.12
12594;BME280;6362;50.208;9.182;2023-03-13T08:51:02;98716.72;;;11.78;79.36
12594;BME280;6362;50.208;9.182;2023-03-13T08:53:28;98729.78;;;11.76;79.26
12594;BME280;6362;50.208;9.182;2023-03-13T08:55:54;98723.69;;;11.77;79.01
12594;BME280;6362;50.208;9.182;2023-03-13T08:58:19;98715.13;;;11.74;79.00
12594;BME280;6362;50.208;9.182;2023-03-13T09:00:45;98726.47;;;11.71;79.49
12594;BME280;6362;50.208;9.182;2023-03-13T09:03:10;98717.59;;;11.78;79.01
12594;BME280;6362;50.208;9.182;2023-03-13T09:05:36;98697.97;;;11.95;77.85
12594;BME280;6362;50.208;9.182;2023-03-13T09:08:02;98704.06;;;11.94;77.87
12594;BME280;6362;50.208;9.182;2023-03-13T09:10:28;98702.97;;;12.01;77.40
12594;BME280;6362;50.208;9.182;2023-03-13T09:12:53;98692.44;;;12.04;77.29
12594;BME280;6362;50.208;9.182;2023-03-13T09:15:19;98685.44;;;12.06;76.83
12594;BME280;6362;50.208;9.182;2023-03-13T09:17:44;98686.94;;;12.13;76.44
12594;BME280;6362;50.208;9.182;2023-03-13T09:20:10;98685.25;;;12.12;76.90
12594;BME280;6362;50.208;9.182;2023-03-13T09:22:35;98684.97;;;12.20;76.29
12594;BME280;6362;50.208;9.182;2023-03-13T09:25:01;98692.09;;;12.14;76.56
12594;BME280;6362;50.208;9.182;2023-03-13T09:27:26;98695.50;;;12.17;76.75
12594;BME280;6362;50.208;9.182;2023-03-13T09:29:53;98677.28;;;12.17;76.57
12594;BME280;6362;50.208;9.182;2023-03-13T09:32:18;98684.25;;;12.16;76.69
12594;BME280;6362;50.208;9.182;2023-03-13T09:34:45;98686.78;;;12.18;76.59
12594;BME280;6362;50.208;9.182;2023-03-13T09:37:11;98679.81;;;12.18;76.87
12594;BME280;6362;50.208;9.182;2023-03-13T09:39:36;98665.78;;;12.22;76.91
12594;BME280;6362;50.208;9.182;2023-03-13T09:42:08;98669.16;;;12.24;76.68
12594;BME280;6362;50.208;9.182;2023-03-13T09:44:39;98656.94;;;12.26;77.00
12594;BME280;6362;50.208;9.182;2023-03-13T09:47:16;98659.31;;;12.32;76.44
12594;BME280;6362;50.208;9.182;2023-03-13T09:57:27;98641.22;;;12.53;76.02
12594;BME280;6362;50.208;9.182;2023-03-13T10:00:09;98646.81;;;12.65;75.84
12594;BME280;6362;50.208;9.182;2023-03-13T10:02:38;98640.09;;;12.83;75.01
12594;BME280;6362;50.208;9.182;2023-03-13T10:05:22;98629.19;;;12.95;74.60
12594;BME280;6362;50.208;9.182;2023-03-13T10:07:49;98621.50;;;13.14;74.23
12594;BME280;6362;50.208;9.182;2023-03-13T10:10:17;98620.94;;;13.30;72.92
12594;BME280;6362;50.208;9.182;2023-03-13T10:12:45;98622.09;;;13.44;72.52
12594;BME280;6362;50.208;9.182;2023-03-13T10:17:55;98636.50;;;13.33;72.34
12594;BME280;6362;50.208;9.182;2023-03-13T10:20:24;98639.81;;;13.36;72.55
12594;BME280;6362;50.208;9.182;2023-03-13T10:22:56;98637.28;;;13.35;72.43
12594;BME280;6362;50.208;9.182;2023-03-13T10:25:27;98631.44;;;13.28;72.69
12594;BME280;6362;50.208;9.182;2023-03-13T10:27:54;98631.56;;;13.25;72.30
12594;BME280;6362;50.208;9.182;2023-03-13T10:35:42;98643.75;;;13.25;72.57
12594;BME280;6362;50.208;9.182;2023-03-13T10:38:09;98638.69;;;13.22;72.28
12594;BME280;6362;50.208;9.182;2023-03-13T10:40:35;98633.47;;;13.20;72.32
12594;BME280;6362;50.208;9.182;2023-03-13T10:43:11;98637.06;;;13.17;72.39
12594;BME280;6362;50.208;9.182;2023-03-13T10:45:37;98631.09;;;13.14;72.30
12594;BME280;6362;50.208;9.182;2023-03-13T10:48:12;98624.19;;;13.13;72.56
12594;BME280;6362;50.208;9.182;2023-03-13T10:50:42;98622.94;;;13.23;72.18
12594;BME280;6362;50.208;9.182;2023-03-13T10:56:11;98626.91;;;13.33;72.38
12594;BME280;6362;50.208;9.182;2023-03-13T10:58:48;98624.03;;;13.39;71.38
12594;BME280;6362;50.208;9.182;2023-03-13T11:01:26;98624.72;;;13.44;71.10
12594;BME280;6362;50.208;9.182;2023-03-13T11:03:58;98637.56;;;13.49;71.15
12594;BME280;6362;50.208;9.182;2023-03-13T11:06:49;98615.53;;;13.56;70.79
12594;BME280;6362;50.208;9.182;2023-03-13T11:09:17;98619.56;;;13.63;71.11
12594;BME280;6362;50.208;9.182;2023-03-13T11:14:16;98599.66;;;13.81;70.26
12594;BME280;6362;50.208;9.182;2023-03-13T11:17:19;98605.81;;;13.80;70.68
12594;BME280;6362;50.208;9.182;2023-03-13T11:19:50;98581.97;;;13.88;69.89
12594;BME280;6362;50.208;9.182;2023-03-13T11:22:27;98597.25;;;13.97;70.11
12594;BME280;6362;50.208;9.182;2023-03-13T11:25:24;98600.72;;;14.18;69.80
12594;BME280;6362;50.208;9.182;2023-03-13T11:28:08;98575.06;;;14.26;68.77
12594;BME280;6362;50.208;9.182;2023-03-13T11:30:57;98566.56;;;14.21;69.10
12594;BME280;6362;50.208;9.182;2023-03-13T11:36:12;98568.03;;;14.28;68.79
12594;BME280;6362;50.208;9.182;2023-03-13T11:38:41;98570.75;;;14.25;68.41
12594;BME280;6362;50.208;9.182;2023-03-13T11:54:58;98557.13;;;13.98;69.29
12594;BME280;6362;50.208;9.182;2023-03-13T12:03:14;98531.44;;;13.87;69.55
12594;BME280;6362;50.208;9.182;2023-03-13T12:05:48;98530.28;;;13.94;68.93
12594;BME280;6362;50.208;9.182;2023-03-13T12:08:29;98527.69;;;13.94;68.89
12594;BME280;6362;50.208;9.182;2023-03-13T12:13:40;98510.66;;;14.05;68.80
12594;BME280;6362;50.208;9.182;2023-03-13T12:16:14;98517.44;;;14.09;68.99
12594;BME280;6362;50.208;9.182;2023-03-13T12:18:45;98504.44;;;14.07;68.82
12594;BME280;6362;50.208;9.182;2023-03-13T12:21:18;98499.94;;;14.11;68.63
12594;BME280;6362;50.208;9.182;2023-03-13T12:23:52;98494.56;;;14.14;68.62
12594;BME280;6362;50.208;9.182;2023-03-13T12:26:32;98491.19;;;14.12;68.72
12594;BME280;6362;50.208;9.182;2023-03-13T12:31:51;98467.66;;;14.31;68.27
12594;BME280;6362;50.208;9.182;2023-03-13T12:34:29;98478.53;;;14.21;68.71
12594;BME280;6362;50.208;9.182;2023-03-13T12:39:47;98462.50;;;14.29;68.28
12594;BME280;6362;50.208;9.182;2023-03-13T12:42:41;98467.84;;;14.26;68.39
12594;BME280;6362;50.208;9.182;2023-03-13T12:45:17;98460.44;;;14.17;68.67
12594;BME280;6362;50.208;9.182;2023-03-13T13:03:53;98418.53;;;14.18;70.02
12594;BME280;6362;50.208;9.182;2023-03-13T13:06:20;98417.69;;;14.18;69.94
12594;BME280;6362;50.208;9.182;2023-03-13T13:17:00;98391.66;;;14.15;69.46
12594;BME280;6362;50.208;9.182;2023-03-13T13:25:31;98377.28;;;14.06;70.26
12594;BME280;6362;50.208;9.182;2023-03-13T13:30:46;98366.13;;;13.84;71.77
12594;BME280;6362;50.208;9.182;2023-03-13T13:35:44;98359.69;;;13.72;72.63
12594;BME280;6362;50.208;9.182;2023-03-13T13:43:23;98342.25;;;13.72;73.59
12594;BME280;6362;50.208;9.182;2023-03-13T13:46:05;98326.13;;;13.82;73.87
12594;BME280;6362;50.208;9.182;2023-03-13T13:48:40;98319.06;;;14.03;73.42
12594;BME280;6362;50.208;9.182;2023-03-13T13:56:36;98293.84;;;15.07;70.50
12594;BME280;6362;50.208;9.182;2023-03-13T13:59:14;98279.56;;;15.46;68.85
12594;BME280;6362;50.208;9.182;2023-03-13T14:01:42;98271.16;;;15.88;67.69
12594;BME280;6362;50.208;9.182;2023-03-13T14:06:50;98263.66;;;16.28;64.84
12594;BME280;6362;50.208;9.182;2023-03-13T14:09:30;98244.31;;;16.45;62.15
12594;BME280;6362;50.208;9.182;2023-03-13T14:11:57;98226.88;;;16.44;62.75
12594;BME280;6362;50.208;9.182;2023-03-13T14:14:23;98225.47;;;16.97;60.53
12594;BME280;6362;50.208;9.182;2023-03-13T14:16:51;98202.94;;;17.21;59.79
12594;BME280;6362;50.208;9.182;2023-03-13T14:21:45;98191.00;;;17.71;58.78
12594;BME280;6362;50.208;9.182;2023-03-13T14:24:12;98176.59;;;18.31;56.52
12594;BME280;6362;50.208;9.182;2023-03-13T14:26:41;98172.03;;;18.72;55.05
12594;BME280;6362;50.208;9.182;2023-03-13T14:29:15;98163.59;;;18.55;55.49
12594;BME280;6362;50.208;9.182;2023-03-13T14:31:49;98167.25;;;18.27;55.97
12594;BME280;6362;50.208;9.182;2023-03-13T14:34:15;98154.22;;;17.98;56.81
12594;BME280;6362;50.208;9.182;2023-03-13T14:36:50;98144.06;;;17.79;57.18
12594;BME280;6362;50.208;9.182;2023-03-13T14:42:02;98136.69;;;17.30;57.87
12594;BME280;6362;50.208;9.182;2023-03-13T14:44:30;98120.88;;;17.18;57.37
12594;BME280;6362;50.208;9.182;2023-03-13T14:47:06;98109.16;;;17.09;57.74
12594;BME280;6362;50.208;9.182;2023-03-13T14:49:33;98110.38;;;17.03;57.76
12594;BME280;6362;50.208;9.182;2023-03-13T14:52:24;98094.56;;;16.91;57.98
12594;BME280;6362;50.208;9.182;2023-03-13T14:54:53;98093.25;;;16.83;58.50
12594;BME280;6362;50.208;9.182;2023-03-13T14:57:21;98080.13;;;16.83;58.60
12594;BME280;6362;50.208;9.182;2023-03-13T14:59:48;98068.84;;;16.96;57.91
12594;BME280;6362;50.208;9.182;2023-03-13T15:02:26;98063.72;;;16.94;58.19
12594;BME280;6362;50.208;9.182;2023-03-13T15:05:01;98047.56;;;17.00;58.04
12594;BME280;6362;50.208;9.182;2023-03-13T15:07:39;98040.63;;;16.99;57.52
12594;BME280;6362;50.208;9.182;2023-03-13T15:10:28;98039.69;;;17.00;57.54
12594;BME280;6362;50.208;9.182;2023-03-13T15:12:55;98043.03;;;17.02;57.77
12594;BME280;6362;50.208;9.182;2023-03-13T15:15:20;98023.94;;;17.00;57.48
12594;BME280;6362;50.208;9.182;2023-03-13T15:17:46;98029.47;;;16.96;57.49
12594;BME280;6362;50.208;9.182;2023-03-13T15:20:13;98012.09;;;16.93;57.89
12594;BME280;6362;50.208;9.182;2023-03-13T15:22:41;98012.31;;;16.90;58.25